Monday, September 16, 2019, 8:41 AM EDT
Back to Local

KCEF, Chicopee Falls / Westover Air Force Base

Location: Chicopee, MA, United States Lat: 42.2
Local Time: 8:41 AM EDT (12:41 GMT) Lon: -72.533
Time Zone: US/Eastern Elev: 246 ft

Show me the last for .
Show Decoded

2019-09-16 06:56 METAR KCEF 161056Z 02003KT 10SM MIFG FEW033 SCT065 BKN230 13/12 A3007 RMK AO2A
                 SLP188 T01250123 =
2019-09-16 00:56 METAR KCEF 160456Z AUTO 16004KT 10SM CLR 14/13 A3004 RMK AO2 SLP178 T01350133
                 402610132 =
2019-09-15 22:56 METAR KCEF 160256Z 00000KT 10SM FEW090 14/14 A3005 RMK AO2A SLP181 T01410136
                 53001 =
2019-09-15 21:56 METAR KCEF 160156Z 00000KT 10SM FEW120 15/14 A3004 RMK AO2A SLP178 T01540143 =
2019-09-15 20:56 METAR KCEF 160056Z 00000KT 10SM FEW160 17/14 A3004 RMK AO2A SLP178 T01740141 =
2019-09-15 18:56 METAR KCEF 152256Z 25006KT 10SM SCT110 BKN140 BKN200 22/12 A3004 RMK AO2A SLP178
                 T02190124 =
2019-09-15 15:56 METAR KCEF 151956Z COR 32007KT 10SM FEW035 FEW120 SCT250 25/11 A3005 RMK AO2A
                 SLP181 T02540108 COR 2023 =
2019-09-15 10:56 METAR KCEF 151456Z 29007KT 10SM FEW020 FEW200 21/13 A3014 RMK AO2A SLP212
                 T02130129 58004 =

Support USWX by starting your Amazon purchase here.